Time;durP1;ratioP1;P1;durP2;ratioP2;P2;SDS_P1;SDS_P2;PMS_P1;PMS_P2;Temp;Humidity;BMP_temperature;BMP_pressure;BME280_temperature;BME280_humidity;BME280_pressure;Samples;Min_cycle;Max_cycle;Signal;HPM_P1;HPM_P2
2023/09/06 00:01:18;;;;;;;8.45;4.45;;;;;;;13.69;100.00;94287.81;5091684;28;20089;-59
2023/09/06 00:03:45;;;;;;;14.05;6.82;;;;;;;13.57;100.00;94280.94;5071122;28;20036;-60
2023/09/06 00:06:12;;;;;;;8.55;4.80;;;;;;;13.33;100.00;94279.50;5090205;28;20048;-60
2023/09/06 00:08:39;;;;;;;8.80;4.80;;;;;;;13.44;100.00;94279.25;5090041;28;20040;-60
2023/09/06 00:11:06;;;;;;;7.13;4.23;;;;;;;13.45;100.00;94273.34;5090649;28;20548;-62
2023/09/06 00:13:35;;;;;;;7.78;4.75;;;;;;;13.32;100.00;94275.16;5090225;28;20313;-61
2023/09/06 00:16:03;;;;;;;8.07;4.53;;;;;;;13.34;100.00;94278.28;5090175;28;20044;-61
2023/09/06 00:18:30;;;;;;;8.00;4.85;;;;;;;13.30;100.00;94274.81;5089307;28;20404;-61
2023/09/06 00:20:58;;;;;;;8.48;4.85;;;;;;;13.30;100.00;94283.09;5089491;28;20052;-61
2023/09/06 00:23:25;;;;;;;8.90;4.57;;;;;;;13.28;100.00;94272.47;5088662;28;20107;-61
2023/09/06 00:25:56;;;;;;;8.05;5.00;;;;;;;13.07;100.00;94279.16;5089730;28;20036;-62
2023/09/06 00:28:25;;;;;;;10.10;4.60;;;;;;;13.16;100.00;94278.63;5089176;28;20100;-62
2023/09/06 00:30:57;;;;;;;7.32;4.78;;;;;;;13.12;100.00;94277.88;5086282;28;21278;-60
2023/09/06 00:33:33;;;;;;;7.25;4.70;;;;;;;13.09;100.00;94273.25;5069384;28;20055;-60
2023/09/06 00:36:02;;;;;;;7.20;4.47;;;;;;;13.08;100.00;94274.41;5069706;28;20040;-60
2023/09/06 00:38:29;;;;;;;9.48;4.90;;;;;;;12.96;100.00;94273.88;5068909;28;20055;-60
2023/09/06 00:40:57;;;;;;;11.90;7.07;;;;;;;13.01;100.00;94272.59;5068954;28;20074;-60
2023/09/06 00:43:23;;;;;;;9.25;5.10;;;;;;;12.93;100.00;94271.16;5095648;27;20040;-60
2023/09/06 00:45:51;;;;;;;10.18;4.78;;;;;;;12.81;100.00;94261.53;5109787;28;20046;-60
2023/09/06 00:48:21;;;;;;;10.53;4.93;;;;;;;12.84;100.00;94270.94;5109106;27;20139;-59
2023/09/06 00:50:54;;;;;;;9.30;4.65;;;;;;;12.80;100.00;94265.50;5109804;27;20035;-60
2023/09/06 00:53:23;;;;;;;9.88;4.75;;;;;;;12.67;100.00;94262.56;5109472;28;20040;-60
2023/09/06 00:55:51;;;;;;;8.60;5.03;;;;;;;12.71;100.00;94257.78;5109712;28;20048;-60
2023/09/06 00:58:19;;;;;;;7.38;4.72;;;;;;;12.48;100.00;94255.06;5109533;28;20062;-60
2023/09/06 01:00:47;;;;;;;8.97;4.77;;;;;;;12.58;100.00;94265.13;5108690;28;20403;-60
2023/09/06 01:03:15;;;;;;;7.60;4.70;;;;;;;12.21;100.00;94257.84;5109394;28;20123;-60
2023/09/06 01:06:00;;;;;;;9.00;5.70;;;;;;;11.93;100.00;94262.59;5108694;28;20043;-60
2023/09/06 01:08:51;;;;;;;8.80;5.13;;;;;;;12.12;100.00;94261.91;5109056;28;20390;-60
2023/09/06 01:11:24;;;;;;;9.05;5.40;;;;;;;12.24;100.00;94268.03;5108673;28;20050;-59
2023/09/06 01:13:58;;;;;;;9.00;5.43;;;;;;;12.22;100.00;94259.44;5109367;28;20531;-60
2023/09/06 01:16:32;;;;;;;8.40;5.15;;;;;;;12.35;100.00;94260.38;5107729;28;20408;-60
2023/09/06 01:19:00;;;;;;;9.95;4.90;;;;;;;12.43;100.00;94269.28;5109079;28;20042;-60
2023/09/06 01:21:36;;;;;;;10.07;5.00;;;;;;;12.43;100.00;94272.03;5108839;28;20044;-60
2023/09/06 01:24:05;;;;;;;8.80;4.95;;;;;;;12.44;100.00;94270.88;5109223;28;20040;-61
2023/09/06 01:26:34;;;;;;;8.53;4.97;;;;;;;12.41;100.00;94274.44;5108865;28;20078;-61
2023/09/06 01:29:01;;;;;;;10.25;5.50;;;;;;;12.37;100.00;94267.03;5090453;28;20416;-61
2023/09/06 01:31:27;;;;;;;231.68;88.93;;;;;;;12.02;100.00;94270.34;5082470;28;20041;-60
2023/09/06 01:33:54;;;;;;;150.18;57.40;;;;;;;12.17;100.00;94266.16;5070266;28;20055;-61
2023/09/06 01:36:21;;;;;;;140.05;54.92;;;;;;;12.19;100.00;94266.53;5087962;28;20489;-61
2023/09/06 01:38:51;;;;;;;78.40;32.43;;;;;;;12.18;100.00;94260.25;5093298;28;20060;-61
2023/09/06 01:41:18;;;;;;;58.60;25.17;;;;;;;12.23;100.00;94269.22;5093173;28;20545;-60
2023/09/06 01:43:45;;;;;;;22.77;10.88;;;;;;;12.23;100.00;94264.50;5093295;28;20040;-61
2023/09/06 01:46:12;;;;;;;14.75;6.90;;;;;;;12.29;100.00;94260.06;5092870;28;20044;-61
2023/09/06 01:48:39;;;;;;;16.13;7.90;;;;;;;12.26;100.00;94262.91;5092464;28;20036;-61
2023/09/06 01:51:08;;;;;;;27.17;11.93;;;;;;;12.15;100.00;94263.06;5091382;28;20054;-61
2023/09/06 01:53:35;;;;;;;22.83;10.65;;;;;;;12.02;100.00;94262.09;5092197;28;20044;-61
2023/09/06 01:56:02;;;;;;;21.67;10.20;;;;;;;12.00;100.00;94248.75;5092549;28;20040;-61
2023/09/06 01:58:32;;;;;;;15.82;7.95;;;;;;;11.89;100.00;94243.41;5092315;28;20048;-60
2023/09/06 02:01:00;;;;;;;12.38;6.57;;;;;;;11.92;100.00;94242.56;5092512;28;20044;-61
2023/09/06 02:03:27;;;;;;;15.03;6.50;;;;;;;11.95;100.00;94249.22;5092252;28;20055;-61
2023/09/06 02:05:55;;;;;;;12.98;6.40;;;;;;;11.92;100.00;94248.06;5092395;28;20048;-61
2023/09/06 02:08:22;;;;;;;10.60;5.20;;;;;;;11.77;100.00;94252.19;5091714;28;20052;-61
2023/09/06 02:10:49;;;;;;;9.80;4.80;;;;;;;11.64;100.00;94252.00;5092526;28;20514;-61
2023/09/06 02:13:15;;;;;;;8.32;5.18;;;;;;;11.58;100.00;94254.41;5090921;28;20533;-61
2023/09/06 02:15:42;;;;;;;9.60;5.67;;;;;;;11.59;100.00;94253.25;5090818;28;20408;-61
2023/09/06 02:18:15;;;;;;;9.57;5.20;;;;;;;11.65;100.00;94256.31;5092107;28;20036;-61
2023/09/06 02:20:42;;;;;;;10.15;5.70;;;;;;;11.67;100.00;94261.38;5091863;28;20044;-60
2023/09/06 02:23:08;;;;;;;9.38;5.53;;;;;;;11.69;100.00;94248.78;5091965;28;20052;-61
2023/09/06 02:25:35;;;;;;;9.55;5.82;;;;;;;11.74;100.00;94255.78;5091925;28;20036;-61
2023/09/06 02:28:05;;;;;;;10.00;5.70;;;;;;;11.67;100.00;94259.44;5091822;28;20054;-61
2023/09/06 02:30:36;;;;;;;9.32;5.70;;;;;;;11.68;100.00;94254.69;5091732;28;20058;-60
2023/09/06 02:33:04;;;;;;;9.90;5.80;;;;;;;11.69;100.00;94264.47;5091542;28;20054;-61
2023/09/06 02:35:40;;;;;;;10.40;5.30;;;;;;;11.68;100.00;94252.72;5091492;28;20411;-61
2023/09/06 02:38:09;;;;;;;11.80;5.90;;;;;;;11.36;100.00;94262.16;5091774;28;20101;-61
2023/09/06 02:40:35;;;;;;;10.53;5.83;;;;;;;11.12;100.00;94260.50;5091401;28;20074;-60
2023/09/06 02:43:04;;;;;;;11.20;5.90;;;;;;;11.28;100.00;94271.69;5091755;28;20040;-61
2023/09/06 02:45:36;;;;;;;9.75;5.30;;;;;;;11.35;100.00;94270.84;5091364;28;20500;-61
2023/09/06 02:48:12;;;;;;;8.63;5.45;;;;;;;11.41;100.00;94274.69;5088932;28;20450;-61
2023/09/06 02:50:40;;;;;;;10.63;5.70;;;;;;;11.30;100.00;94277.56;5091179;28;20048;-60
2023/09/06 02:53:19;;;;;;;9.87;5.60;;;;;;;11.24;100.00;94279.19;5091515;28;20442;-61
2023/09/06 02:55:53;;;;;;;10.95;6.05;;;;;;;11.18;100.00;94273.38;5090718;28;20630;-61
2023/09/06 02:58:24;;;;;;;10.52;5.65;;;;;;;11.16;100.00;94267.50;5090957;28;20536;-60
2023/09/06 03:00:57;;;;;;;9.65;5.10;;;;;;;11.19;100.00;94276.91;5091435;28;20046;-60
2023/09/06 03:03:26;;;;;;;9.98;5.40;;;;;;;11.19;100.00;94263.97;5090956;28;20052;-61
2023/09/06 03:05:58;;;;;;;9.30;5.10;;;;;;;11.17;100.00;94271.84;5091345;28;20374;-61
2023/09/06 03:08:25;;;;;;;9.02;5.78;;;;;;;11.17;100.00;94273.81;5090782;28;20052;-60
2023/09/06 03:10:53;;;;;;;10.02;5.10;;;;;;;11.10;100.00;94271.13;5091271;28;20389;-61
2023/09/06 03:13:20;;;;;;;8.02;5.18;;;;;;;11.08;100.00;94277.03;5090512;28;20047;-60
2023/09/06 03:15:51;;;;;;;10.00;6.10;;;;;;;11.03;100.00;94277.50;5091148;28;20044;-60
2023/09/06 03:18:22;;;;;;;9.83;5.50;;;;;;;11.03;100.00;94282.19;5089220;28;20044;-60
2023/09/06 03:20:49;;;;;;;9.27;5.40;;;;;;;11.00;100.00;94279.06;5091042;28;20040;-61
2023/09/06 03:23:19;;;;;;;9.55;5.70;;;;;;;10.99;100.00;94276.75;5090681;28;20036;-61
2023/09/06 03:25:54;;;;;;;9.60;5.85;;;;;;;10.87;100.00;94282.78;5089938;28;20824;-61
2023/09/06 03:28:25;;;;;;;12.95;5.50;;;;;;;10.93;100.00;94286.63;5090278;28;20561;-61
2023/09/06 03:30:53;;;;;;;9.90;5.67;;;;;;;10.87;100.00;94289.03;5091244;28;20054;-60
2023/09/06 03:33:19;;;;;;;9.38;5.63;;;;;;;10.80;100.00;94286.34;5090285;28;20500;-60
2023/09/06 03:35:48;;;;;;;9.27;5.50;;;;;;;10.83;100.00;94295.75;5090947;28;20043;-61
2023/09/06 03:38:17;;;;;;;10.00;5.53;;;;;;;10.85;100.00;94288.66;5090545;28;20050;-60
2023/09/06 03:40:45;;;;;;;9.00;5.70;;;;;;;10.82;100.00;94288.69;5089824;28;20275;-60
2023/09/06 03:43:15;;;;;;;9.57;5.90;;;;;;;10.81;100.00;94287.16;5090506;28;20052;-60
2023/09/06 03:45:51;;;;;;;9.55;5.68;;;;;;;10.81;100.00;94292.66;5090345;28;20063;-60
2023/09/06 03:48:22;;;;;;;10.30;5.85;;;;;;;10.77;100.00;94293.44;5089961;28;20052;-60
2023/09/06 03:50:53;;;;;;;11.95;6.03;;;;;;;10.75;100.00;94298.56;5090476;28;20039;-60
2023/09/06 03:53:20;;;;;;;11.15;6.00;;;;;;;10.72;100.00;94287.59;5089810;28;20035;-59
2023/09/06 03:55:47;;;;;;;10.33;6.00;;;;;;;10.73;100.00;94289.94;5090481;28;20044;-60
2023/09/06 03:58:14;;;;;;;9.57;5.57;;;;;;;10.69;100.00;94291.97;5090056;28;20040;-60
2023/09/06 04:00:43;;;;;;;11.32;6.20;;;;;;;10.67;100.00;94291.59;5089579;28;20040;-61
2023/09/06 04:03:14;;;;;;;9.85;6.30;;;;;;;10.60;100.00;94283.41;5089890;28;20564;-61
2023/09/06 04:05:43;;;;;;;10.60;5.82;;;;;;;10.58;100.00;94291.28;5089132;28;20496;-60
2023/09/06 04:08:10;;;;;;;11.87;5.50;;;;;;;10.53;100.00;94292.50;5089889;28;20051;-60
2023/09/06 04:10:38;;;;;;;11.00;6.18;;;;;;;10.50;100.00;94284.28;5090370;28;20040;-60
2023/09/06 04:13:08;;;;;;;9.55;5.72;;;;;;;10.51;100.00;94289.38;5097431;28;20107;-61
2023/09/06 04:15:35;;;;;;;9.77;5.75;;;;;;;10.49;100.00;94293.72;5109827;28;20061;-60
2023/09/06 04:18:04;;;;;;;9.65;5.68;;;;;;;10.43;100.00;94279.66;5110232;28;20066;-60
2023/09/06 04:20:35;;;;;;;9.80;5.77;;;;;;;10.43;100.00;94289.84;5109507;28;20043;-60
2023/09/06 04:23:04;;;;;;;9.77;6.07;;;;;;;10.41;100.00;94293.00;5110439;28;20488;-60
2023/09/06 04:25:33;;;;;;;9.27;5.43;;;;;;;10.37;100.00;94309.47;5109312;28;20100;-60
2023/09/06 04:28:01;;;;;;;10.70;5.97;;;;;;;10.33;100.00;94303.25;5100173;28;20542;-61
2023/09/06 04:30:28;;;;;;;10.82;6.43;;;;;;;10.33;100.00;94306.00;5088851;28;20032;-60
2023/09/06 04:32:58;;;;;;;12.43;5.90;;;;;;;10.35;100.00;94311.84;5089637;28;20134;-60
2023/09/06 04:35:38;;;;;;;10.60;6.10;;;;;;;10.37;100.00;94305.97;5088748;28;20051;-60
2023/09/06 04:38:09;;;;;;;10.88;6.20;;;;;;;10.37;100.00;94309.47;5089483;28;20044;-61
2023/09/06 04:40:37;;;;;;;11.23;6.50;;;;;;;10.41;100.00;94311.44;5088832;28;20040;-60
2023/09/06 04:43:07;;;;;;;11.90;7.15;;;;;;;10.39;100.00;94311.81;5089337;28;20047;-60
2023/09/06 04:45:37;;;;;;;11.90;6.20;;;;;;;10.42;100.00;94315.72;5088864;28;20052;-61
2023/09/06 04:48:11;;;;;;;12.48;6.47;;;;;;;10.43;100.00;94314.53;5089360;28;20438;-61
2023/09/06 04:50:40;;;;;;;11.63;6.38;;;;;;;10.43;100.00;94312.56;5089008;28;20048;-61
2023/09/06 04:53:08;;;;;;;10.40;6.30;;;;;;;10.46;100.00;94310.97;5093053;28;20054;-61
2023/09/06 04:55:36;;;;;;;11.35;6.70;;;;;;;10.42;100.00;94302.78;5099917;27;20369;-61
2023/09/06 04:58:03;;;;;;;11.70;6.70;;;;;;;10.43;100.00;94307.09;5109533;27;20419;-61
2023/09/06 05:00:35;;;;;;;10.30;5.95;;;;;;;10.32;100.00;94301.69;5101444;28;20524;-61
2023/09/06 05:03:04;;;;;;;11.60;6.13;;;;;;;10.29;100.00;94302.47;5087084;28;20040;-61
2023/09/06 05:05:31;;;;;;;9.70;5.97;;;;;;;10.34;100.00;94306.75;5088375;28;20112;-60
2023/09/06 05:07:58;;;;;;;13.02;6.45;;;;;;;10.36;100.00;94310.69;5088919;28;20128;-61
2023/09/06 05:10:25;;;;;;;11.40;6.63;;;;;;;10.37;100.00;94309.47;5087965;28;20048;-60
2023/09/06 05:12:51;;;;;;;11.45;6.65;;;;;;;10.43;100.00;94311.81;5089141;28;20047;-60
2023/09/06 05:15:18;;;;;;;11.73;6.38;;;;;;;10.46;100.00;94310.97;5088221;28;20393;-59
2023/09/06 05:17:45;;;;;;;12.88;6.75;;;;;;;10.52;100.00;94312.91;5088780;28;20036;-60
2023/09/06 05:20:33;;;;;;;10.55;6.53;;;;;;;10.58;100.00;94307.72;5088874;28;20040;-60
2023/09/06 05:23:04;;;;;;;11.80;6.70;;;;;;;10.64;100.00;94308.84;5088150;28;21688;-61
2023/09/06 05:25:31;;;;;;;12.20;6.85;;;;;;;10.74;100.00;94318.19;5088201;28;20061;-60
2023/09/06 05:28:00;;;;;;;13.77;6.82;;;;;;;10.75;100.00;94308.78;5089014;28;20051;-60
2023/09/06 05:30:27;;;;;;;13.57;6.50;;;;;;;10.59;100.00;94306.56;5087880;28;20052;-61
2023/09/06 05:32:55;;;;;;;12.95;6.68;;;;;;;10.63;100.00;94312.03;5088877;28;20435;-60
2023/09/06 05:35:23;;;;;;;11.93;6.87;;;;;;;10.48;100.00;94308.59;5088138;28;20048;-60
2023/09/06 05:37:50;;;;;;;11.45;6.53;;;;;;;10.39;100.00;94311.81;5088717;28;20036;-61
2023/09/06 05:40:22;;;;;;;11.95;6.78;;;;;;;10.43;100.00;94309.84;5088433;28;20044;-61
2023/09/06 05:42:50;;;;;;;12.40;6.57;;;;;;;10.54;100.00;94309.72;5087473;28;20898;-60
2023/09/06 05:45:21;;;;;;;11.23;6.57;;;;;;;10.66;100.00;94317.47;5088409;28;20075;-60
2023/09/06 05:47:49;;;;;;;11.03;6.23;;;;;;;10.81;100.00;94315.38;5087717;28;20730;-60
2023/09/06 05:50:16;;;;;;;12.40;7.03;;;;;;;10.89;100.00;94325.09;5088275;28;20063;-61
2023/09/06 05:52:43;;;;;;;14.50;6.70;;;;;;;10.94;100.00;94318.38;5088170;28;20051;-60
2023/09/06 05:55:12;;;;;;;11.45;7.22;;;;;;;10.92;100.00;94327.00;5088502;28;20054;-60
2023/09/06 05:57:39;;;;;;;14.40;7.78;;;;;;;10.81;100.00;94328.34;5088193;28;20047;-61
2023/09/06 06:00:12;;;;;;;11.80;7.33;;;;;;;11.08;100.00;94322.94;5088561;28;20435;-60
2023/09/06 06:02:41;;;;;;;15.07;7.65;;;;;;;11.28;100.00;94323.13;5088192;28;20032;-61
2023/09/06 06:05:09;;;;;;;14.32;8.45;;;;;;;11.34;100.00;94330.50;5088609;28;20056;-61
2023/09/06 06:07:36;;;;;;;15.23;7.80;;;;;;;11.26;100.00;94328.25;5097092;28;20047;-60
2023/09/06 06:10:03;;;;;;;14.85;8.18;;;;;;;11.31;100.00;94325.84;5108742;28;20044;-61
2023/09/06 06:12:32;;;;;;;13.23;8.43;;;;;;;11.47;100.00;94329.94;5108054;28;20404;-61
2023/09/06 06:15:00;;;;;;;14.98;8.55;;;;;;;11.59;100.00;94332.19;5108827;28;20047;-61
2023/09/06 06:17:27;;;;;;;16.33;8.27;;;;;;;11.55;100.00;94325.94;5108005;28;20069;-60
2023/09/06 06:19:54;;;;;;;15.23;8.88;;;;;;;11.52;100.00;94329.50;5107364;28;20052;-61
2023/09/06 06:22:21;;;;;;;16.60;8.63;;;;;;;11.77;100.00;94321.72;5110842;28;20040;-60
2023/09/06 06:24:48;;;;;;;18.77;10.07;;;;;;;11.89;100.00;94327.88;5112715;28;20488;-61
2023/09/06 06:27:15;;;;;;;17.48;10.05;;;;;;;12.15;100.00;94320.81;5108152;28;20499;-61
2023/09/06 06:29:42;;;;;;;19.73;10.10;;;;;;;12.32;100.00;94325.28;5091662;28;20062;-60
2023/09/06 06:32:08;;;;;;;19.08;10.30;;;;;;;12.37;100.00;94321.28;5079513;28;20040;-61
2023/09/06 06:34:38;;;;;;;18.48;10.60;;;;;;;12.39;100.00;94316.13;5074910;28;20040;-60
2023/09/06 06:37:06;;;;;;;24.83;11.37;;;;;;;12.59;100.00;94311.47;5092277;28;20079;-62
2023/09/06 06:39:33;;;;;;;17.52;10.63;;;;;;;12.76;100.00;94317.91;5091666;28;20472;-61
2023/09/06 06:41:59;;;;;;;16.13;9.77;;;;;;;12.96;100.00;94306.91;5092280;28;20062;-62
2023/09/06 06:44:26;;;;;;;15.23;9.27;;;;;;;13.13;100.00;94312.53;5091986;28;20046;-62
2023/09/06 06:46:53;;;;;;;17.67;9.20;;;;;;;13.23;100.00;94308.00;5091213;28;20055;-63
2023/09/06 06:49:20;;;;;;;15.57;9.37;;;;;;;14.68;100.00;94299.75;5087788;28;20040;-62
2023/09/06 06:51:47;;;;;;;13.10;8.48;;;;;;;18.89;100.00;94301.47;5091078;28;20043;-61
2023/09/06 06:54:14;;;;;;;14.65;8.23;;;;;;;21.84;100.00;94299.72;5090864;28;20055;-61
2023/09/06 06:56:42;;;;;;;12.70;7.93;;;;;;;22.52;90.54;94296.09;5090892;28;20110;-61
2023/09/06 06:59:10;;;;;;;12.57;8.60;;;;;;;24.44;77.69;94294.84;5090243;28;20048;-61
2023/09/06 07:01:37;;;;;;;11.33;7.50;;;;;;;24.81;74.76;94302.53;5107924;28;20448;-61
2023/09/06 07:04:04;;;;;;;10.63;7.50;;;;;;;24.51;75.18;94300.78;5111153;28;20458;-61
2023/09/06 07:06:31;;;;;;;9.82;7.28;;;;;;;25.20;69.83;94299.97;5110505;27;20044;-61
2023/09/06 07:08:59;;;;;;;9.98;7.25;;;;;;;24.66;73.31;94306.25;5111660;28;20100;-61
2023/09/06 07:11:26;;;;;;;10.60;6.53;;;;;;;25.71;70.11;94311.44;5110948;28;20044;-61
2023/09/06 07:13:52;;;;;;;8.17;6.57;;;;;;;25.65;69.02;94311.41;5111702;28;20061;-61
2023/09/06 07:16:20;;;;;;;8.43;6.45;;;;;;;26.34;64.80;94303.94;5111050;28;20040;-61
2023/09/06 07:18:47;;;;;;;10.88;6.55;;;;;;;26.59;64.10;94290.94;5110348;28;20035;-61
2023/09/06 07:21:15;;;;;;;9.77;5.90;;;;;;;28.66;57.63;94299.13;5111653;28;20046;-62
2023/09/06 07:23:43;;;;;;;10.52;6.45;;;;;;;27.70;56.60;94300.44;5111119;27;20040;-62
2023/09/06 07:26:10;;;;;;;11.40;6.50;;;;;;;27.13;58.72;94299.06;5111602;27;20117;-61
2023/09/06 07:28:54;;;;;;;8.35;6.28;;;;;;;26.73;59.92;94306.81;5095546;28;20412;-62
2023/09/06 07:31:21;;;;;;;8.45;6.07;;;;;;;27.13;58.95;94310.34;5090484;28;20044;-61
2023/09/06 07:33:48;;;;;;;8.60;5.70;;;;;;;28.01;55.76;94303.38;5090176;28;20044;-61
2023/09/06 07:36:15;;;;;;;7.97;5.65;;;;;;;28.82;53.79;94301.03;5090919;28;20044;-62
2023/09/06 07:38:42;;;;;;;8.57;5.70;;;;;;;28.33;54.69;94309.34;5090219;28;20374;-61
2023/09/06 07:41:09;;;;;;;7.53;5.70;;;;;;;29.28;53.05;94309.88;5090771;28;20101;-62
2023/09/06 07:43:37;;;;;;;9.07;6.07;;;;;;;31.15;48.10;94299.59;5090002;28;20254;-62
2023/09/06 07:46:08;;;;;;;7.70;5.55;;;;;;;31.54;44.99;94303.81;5090369;28;20078;-62
2023/09/06 07:48:36;;;;;;;7.93;5.72;;;;;;;30.20;47.29;94308.25;5089991;28;20046;-62
2023/09/06 07:51:04;;;;;;;9.63;5.40;;;;;;;32.74;43.38;94306.41;5090881;28;20404;-62
2023/09/06 07:53:32;;;;;;;7.60;5.53;;;;;;;32.58;42.26;94305.50;5089838;28;20412;-62
2023/09/06 07:55:59;;;;;;;8.57;5.30;;;;;;;34.15;39.68;94303.47;5090466;28;20374;-62
2023/09/06 07:58:25;;;;;;;7.35;5.25;;;;;;;35.20;35.52;94299.91;5089853;28;20480;-62
2023/09/06 08:00:56;;;;;;;8.45;5.43;;;;;;;34.79;37.91;94307.47;5090487;28;20040;-62
2023/09/06 08:03:42;;;;;;;9.37;5.53;;;;;;;35.83;34.63;94292.03;5089852;28;20472;-62
2023/09/06 08:06:09;;;;;;;8.23;5.13;;;;;;;36.31;33.47;94298.53;5090009;28;20054;-62
2023/09/06 08:08:36;;;;;;;7.00;5.13;;;;;;;36.88;32.53;94299.94;5071647;28;20112;-62
2023/09/06 08:11:04;;;;;;;10.27;4.85;;;;;;;37.29;32.22;94305.56;5090321;28;20040;-62
2023/09/06 08:13:31;;;;;;;9.98;4.90;;;;;;;37.82;30.72;94310.06;5089484;28;20054;-62
2023/09/06 08:15:58;;;;;;;7.90;4.90;;;;;;;37.05;30.54;94307.84;5089998;28;20497;-62
2023/09/06 08:18:24;;;;;;;7.55;5.05;;;;;;;37.92;29.99;94305.19;5089333;28;20088;-62
2023/09/06 08:20:51;;;;;;;7.55;5.00;;;;;;;37.79;29.86;94305.50;5089912;28;20327;-62
2023/09/06 08:23:18;;;;;;;6.60;4.80;;;;;;;37.07;29.59;94310.88;5089436;28;20047;-61
2023/09/06 08:25:46;;;;;;;5.40;4.30;;;;;;;35.39;33.15;94316.63;5089665;28;20519;-62
2023/09/06 08:28:16;;;;;;;8.40;5.40;;;;;;;35.36;32.63;94314.94;5089786;28;20044;-62
2023/09/06 08:30:44;;;;;;;5.90;4.70;;;;;;;35.62;32.22;94315.84;5089511;28;20044;-62
2023/09/06 08:33:11;;;;;;;13.30;5.00;;;;;;;35.36;32.96;94311.31;5090023;28;20039;-62
2023/09/06 08:35:38;;;;;;;8.13;4.55;;;;;;;35.03;33.51;94308.22;5089071;28;20050;-62
2023/09/06 08:38:05;;;;;;;7.25;4.68;;;;;;;35.05;33.29;94310.53;5088403;28;20043;-62
2023/09/06 08:40:32;;;;;;;5.03;4.30;;;;;;;34.03;34.84;94300.16;5089009;28;20544;-62
2023/09/06 08:43:03;;;;;;;6.80;4.50;;;;;;;35.98;32.08;94304.19;5089723;28;20691;-62
2023/09/06 08:45:30;;;;;;;8.73;4.30;;;;;;;34.65;33.85;94303.25;5088241;28;20409;-62
2023/09/06 08:47:58;;;;;;;6.00;4.47;;;;;;;33.76;34.88;94310.25;5089682;28;20066;-62
2023/09/06 08:50:26;;;;;;;5.53;4.40;;;;;;;34.82;34.89;94302.72;5089007;28;20048;-62
2023/09/06 08:52:54;;;;;;;5.93;4.13;;;;;;;37.42;31.09;94302.41;5089639;28;20115;-62
2023/09/06 08:55:21;;;;;;;6.28;4.65;;;;;;;35.51;32.23;94305.56;5089176;28;20044;-62
2023/09/06 08:57:48;;;;;;;5.25;4.20;;;;;;;36.77;30.77;94298.31;5089439;28;20044;-62
2023/09/06 09:00:15;;;;;;;6.07;4.75;;;;;;;36.63;30.25;94302.00;5089078;28;20074;-62
2023/09/06 09:02:46;;;;;;;5.63;4.32;;;;;;;38.19;29.55;94301.66;5088429;28;20100;-62
2023/09/06 09:05:13;;;;;;;5.20;3.93;;;;;;;36.93;29.54;94304.69;5089338;28;20048;-62
2023/09/06 09:07:58;;;;;;;5.30;4.10;;;;;;;37.93;29.27;94300.22;5080177;28;21964;-62
2023/09/06 09:10:29;;;;;;;6.10;4.10;;;;;;;39.21;28.63;94294.72;5088427;28;20052;-62
2023/09/06 09:12:58;;;;;;;7.40;4.35;;;;;;;40.06;26.38;94296.16;5089131;28;20518;-62
2023/09/06 09:15:25;;;;;;;6.10;4.20;;;;;;;40.69;25.76;94306.56;5088446;28;20481;-62
2023/09/06 09:17:53;;;;;;;5.17;3.90;;;;;;;39.66;27.18;94297.44;5089154;28;20036;-62
2023/09/06 09:20:30;;;;;;;6.03;4.20;;;;;;;39.72;26.75;94304.44;5088429;28;20044;-62
2023/09/06 09:23:01;;;;;;;5.38;3.70;;;;;;;39.15;26.84;94303.63;5088822;28;20042;-63
2023/09/06 09:25:29;;;;;;;6.13;4.00;;;;;;;39.13;27.74;94305.59;5088419;28;20039;-63
2023/09/06 09:27:57;;;;;;;5.80;3.80;;;;;;;40.34;26.48;94297.53;5088912;28;20044;-62
2023/09/06 09:30:28;;;;;;;5.40;4.10;;;;;;;41.00;25.57;94297.25;5088415;28;20050;-62
2023/09/06 09:33:01;;;;;;;5.05;4.45;;;;;;;40.45;25.43;94296.16;5082566;28;20043;-62
2023/09/06 09:35:31;;;;;;;5.25;3.85;;;;;;;41.65;24.77;94283.03;5074540;28;20040;-62
2023/09/06 09:38:01;;;;;;;5.10;3.90;;;;;;;41.19;24.67;94278.41;5089061;28;20055;-62
2023/09/06 09:40:36;;;;;;;6.05;4.60;;;;;;;42.25;24.30;94284.88;5088442;28;20088;-61
2023/09/06 09:43:06;;;;;;;5.03;3.97;;;;;;;41.17;25.16;94284.00;5089194;28;20044;-62
2023/09/06 09:45:43;;;;;;;5.20;3.80;;;;;;;41.72;25.38;94279.97;5088803;28;20400;-62
2023/09/06 09:48:11;;;;;;;5.22;3.78;;;;;;;41.89;24.03;94286.81;5088978;28;20036;-62
2023/09/06 09:50:41;;;;;;;5.07;3.90;;;;;;;41.63;24.91;94282.91;5087797;28;20040;-62
2023/09/06 09:53:09;;;;;;;5.10;4.20;;;;;;;36.39;30.30;94281.38;5088746;28;20423;-62
2023/09/06 09:55:49;;;;;;;5.20;4.30;;;;;;;34.02;33.92;94286.47;5088045;28;21862;-62
2023/09/06 09:58:19;;;;;;;6.72;4.20;;;;;;;37.41;30.47;94278.00;5092733;28;20065;-62
2023/09/06 10:00:49;;;;;;;5.85;4.53;;;;;;;37.13;28.69;94274.25;5090257;28;21479;-62
2023/09/06 10:03:18;;;;;;;7.22;4.20;;;;;;;39.48;27.54;94268.84;5092619;28;20055;-62
2023/09/06 10:05:47;;;;;;;5.18;4.28;;;;;;;40.52;26.24;94269.34;5091758;28;20904;-61
2023/09/06 10:08:17;;;;;;;5.33;3.90;;;;;;;41.50;25.37;94264.75;5091241;28;20043;-62
2023/09/06 10:10:45;;;;;;;5.45;4.05;;;;;;;41.69;24.48;94263.13;5091370;28;20764;-62
2023/09/06 10:13:14;;;;;;;4.47;3.92;;;;;;;38.58;27.51;94266.78;5092475;28;20124;-62
2023/09/06 10:15:43;;;;;;;6.95;4.57;;;;;;;36.29;30.24;94266.94;5091848;28;20438;-62
2023/09/06 10:18:11;;;;;;;5.43;4.80;;;;;;;33.80;34.17;94268.72;5092401;28;20389;-62
2023/09/06 10:20:39;;;;;;;7.03;4.80;;;;;;;34.60;33.21;94261.41;5091730;28;20043;-62
2023/09/06 10:23:06;;;;;;;7.90;4.60;;;;;;;36.73;31.26;94266.50;5092399;28;20105;-62
2023/09/06 10:25:40;;;;;;;8.05;4.78;;;;;;;38.52;28.67;94252.72;5090045;28;20263;-63
2023/09/06 10:28:07;;;;;;;5.95;3.97;;;;;;;39.57;27.66;94253.00;5092229;28;20047;-62
2023/09/06 10:30:46;;;;;;;5.55;3.95;;;;;;;40.96;26.05;94253.03;5091428;28;20048;-63
2023/09/06 10:33:47;;;;;;;6.53;4.40;;;;;;;38.83;28.75;94266.63;5092299;28;20048;-63
2023/09/06 10:36:15;;;;;;;7.45;4.78;;;;;;;34.35;34.45;94258.31;5091123;28;20072;-62
2023/09/06 10:38:51;;;;;;;5.70;4.10;;;;;;;35.75;33.33;94258.53;5089765;28;20061;-62
2023/09/06 10:41:20;;;;;;;6.15;4.40;;;;;;;38.97;28.68;94253.41;5091856;28;20105;-62
2023/09/06 10:43:57;;;;;;;5.05;4.28;;;;;;;38.83;28.55;94260.88;5090824;28;21698;-62
2023/09/06 10:46:32;;;;;;;5.27;4.20;;;;;;;39.58;27.83;94257.38;5091532;28;20052;-63
2023/09/06 10:49:16;;;;;;;5.43;4.60;;;;;;;34.65;33.22;94254.78;5091858;28;20066;-63
2023/09/06 10:52:08;;;;;;;4.95;3.95;;;;;;;38.50;29.32;94247.56;5090675;28;20442;-63
2023/09/06 10:54:40;;;;;;;7.55;4.00;;;;;;;41.08;25.99;94239.50;5091206;28;20052;-62
2023/09/06 10:57:12;;;;;;;5.72;4.20;;;;;;;40.34;26.48;94242.88;5091745;28;20059;-63
2023/09/06 10:59:43;;;;;;;6.03;4.00;;;;;;;40.88;26.33;94239.56;5089725;28;20104;-63
2023/09/06 11:02:18;;;;;;;5.57;3.97;;;;;;;41.10;25.23;94233.88;5091563;28;20040;-63
2023/09/06 11:05:02;;;;;;;6.05;3.85;;;;;;;41.77;24.52;94229.09;5090369;28;20346;-63
2023/09/06 11:07:41;;;;;;;5.18;4.00;;;;;;;40.53;26.21;94228.47;5090413;28;20101;-63
2023/09/06 11:10:22;;;;;;;4.78;3.97;;;;;;;40.37;26.45;94235.16;5091730;28;20036;-63
2023/09/06 11:12:53;;;;;;;6.13;4.17;;;;;;;39.58;26.92;94230.75;5090470;28;20583;-62
2023/09/06 11:15:22;;;;;;;5.63;4.10;;;;;;;38.59;28.82;94233.88;5090693;28;20048;-62
2023/09/06 11:17:49;;;;;;;6.03;4.10;;;;;;;38.55;29.19;94234.31;5090956;28;20346;-62
2023/09/06 11:20:16;;;;;;;5.22;4.53;;;;;;;37.86;30.30;94232.31;5091380;28;20356;-62
2023/09/06 11:22:50;;;;;;;6.18;4.47;;;;;;;35.79;33.21;94230.34;5090185;28;20040;-62
2023/09/06 11:25:23;;;;;;;5.60;4.50;;;;;;;32.42;37.70;94231.44;5091130;28;20050;-62
2023/09/06 11:27:51;;;;;;;6.28;4.90;;;;;;;31.03;41.75;94233.84;5090280;28;20861;-62
2023/09/06 11:30:22;;;;;;;6.43;4.50;;;;;;;31.65;40.70;94236.25;5091185;28;20386;-62
2023/09/06 11:32:50;;;;;;;5.47;4.18;;;;;;;31.40;41.20;94230.03;5090147;28;20958;-62
2023/09/06 11:35:33;;;;;;;6.63;4.20;;;;;;;28.85;45.01;94240.66;5090981;28;20046;-62